createdAt,value
2023-06-11T00:01:28.499Z,17.60
2023-06-11T00:03:55.839Z,17.50
2023-06-11T00:07:38.040Z,17.50
2023-06-11T00:10:08.503Z,17.40
2023-06-11T00:12:35.347Z,17.30
2023-06-11T00:15:03.522Z,17.20
2023-06-11T00:17:33.758Z,17.20
2023-06-11T00:20:02.729Z,17.20
2023-06-11T00:22:32.611Z,17.10
2023-06-11T00:24:59.418Z,17.10
2023-06-11T00:27:26.250Z,17.10
2023-06-11T00:29:54.964Z,17.00
2023-06-11T00:32:21.875Z,17.00
2023-06-11T00:34:48.815Z,17.00
2023-06-11T00:37:15.719Z,17.00
2023-06-11T00:39:42.534Z,16.90
2023-06-11T00:42:11.277Z,16.90
2023-06-11T00:44:38.160Z,16.80
2023-06-11T00:47:05.370Z,16.70
2023-06-11T00:49:33.174Z,16.70
2023-06-11T00:52:00.217Z,16.60
2023-06-11T00:54:27.025Z,16.60
2023-06-11T00:56:54.296Z,16.60
2023-06-11T00:59:21.413Z,16.50
2023-06-11T01:02:22.450Z,16.50
2023-06-11T01:04:54.416Z,16.40
2023-06-11T01:07:23.827Z,16.40
2023-06-11T01:09:51.763Z,16.40
2023-06-11T01:12:18.551Z,16.30
2023-06-11T01:14:45.350Z,16.30
2023-06-11T01:17:17.020Z,16.20
2023-06-11T01:19:55.777Z,16.20
2023-06-11T01:22:34.879Z,16.20
2023-06-11T01:25:18.480Z,16.10
2023-06-11T01:27:51.234Z,16.10
2023-06-11T01:30:21.967Z,16.00
2023-06-11T01:32:57.441Z,16.00
2023-06-11T01:35:31.501Z,16.00
2023-06-11T01:37:59.160Z,15.90
2023-06-11T01:40:34.854Z,15.90
2023-06-11T01:43:03.400Z,15.90
2023-06-11T01:45:38.231Z,15.90
2023-06-11T01:48:05.604Z,15.80
2023-06-11T01:50:34.513Z,15.80
2023-06-11T01:53:01.759Z,15.70
2023-06-11T01:55:29.343Z,15.70
2023-06-11T01:57:56.621Z,15.70
2023-06-11T02:00:24.108Z,15.60
2023-06-11T02:02:51.393Z,15.60
2023-06-11T02:05:24.943Z,15.50
2023-06-11T02:07:52.613Z,15.40
2023-06-11T02:10:19.455Z,15.40
2023-06-11T02:12:46.737Z,15.40
2023-06-11T02:15:14.354Z,15.30
2023-06-11T02:17:41.947Z,15.30
2023-06-11T02:20:09.618Z,15.30
2023-06-11T02:22:36.615Z,15.20
2023-06-11T02:25:03.570Z,15.10
2023-06-11T02:27:31.301Z,15.10
2023-06-11T02:30:00.864Z,15.10
2023-06-11T02:32:27.968Z,15.10
2023-06-11T02:34:56.288Z,15.10
2023-06-11T02:37:23.069Z,15.10
2023-06-11T02:39:50.052Z,15.10
2023-06-11T02:42:16.859Z,15.00
2023-06-11T02:44:43.598Z,15.00
2023-06-11T02:47:10.534Z,15.00
2023-06-11T02:49:37.298Z,15.00
2023-06-11T02:52:04.389Z,15.00
2023-06-11T02:54:31.132Z,15.00
2023-06-11T02:56:58.026Z,15.00
2023-06-11T02:59:24.809Z,15.00
2023-06-11T03:01:51.743Z,14.90
2023-06-11T03:04:19.102Z,14.90
2023-06-11T03:06:45.985Z,14.90
2023-06-11T03:09:13.196Z,14.90
2023-06-11T03:11:40.221Z,14.90
2023-06-11T03:14:07.036Z,14.80
2023-06-11T03:16:34.502Z,14.80
2023-06-11T03:19:01.496Z,14.80
2023-06-11T03:21:28.389Z,14.70
2023-06-11T03:23:55.804Z,14.70
2023-06-11T03:26:22.709Z,14.70
2023-06-11T03:28:50.195Z,14.60
2023-06-11T03:31:19.479Z,14.60
2023-06-11T03:33:48.141Z,14.60
2023-06-11T03:36:16.137Z,14.60
2023-06-11T03:38:42.978Z,14.70
2023-06-11T03:41:11.983Z,14.80
2023-06-11T03:43:39.612Z,14.80
2023-06-11T03:46:06.916Z,15.00
2023-06-11T03:48:34.222Z,15.00
2023-06-11T03:51:01.358Z,15.10
2023-06-11T03:53:28.216Z,15.20
2023-06-11T03:55:55.098Z,15.20
2023-06-11T03:58:22.492Z,15.30
2023-06-11T04:00:49.542Z,15.30
2023-06-11T04:03:16.543Z,15.30
2023-06-11T04:05:43.531Z,15.40
2023-06-11T04:08:10.922Z,15.50
2023-06-11T04:10:38.644Z,15.50
2023-06-11T04:13:05.576Z,15.60
2023-06-11T04:15:33.356Z,15.60
2023-06-11T04:18:04.902Z,15.70
2023-06-11T04:20:32.405Z,15.70
2023-06-11T04:22:59.916Z,15.80
2023-06-11T04:25:26.801Z,15.90
2023-06-11T04:27:54.815Z,16.00
2023-06-11T04:30:22.512Z,16.00
2023-06-11T04:32:56.349Z,16.10
2023-06-11T04:35:26.107Z,16.20
2023-06-11T04:37:54.349Z,16.30
2023-06-11T04:40:26.551Z,16.50
2023-06-11T04:42:54.964Z,16.50
2023-06-11T04:45:23.183Z,16.70
2023-06-11T04:47:51.373Z,16.80
2023-06-11T04:50:21.807Z,16.90
2023-06-11T04:52:53.169Z,17.00
2023-06-11T04:55:26.357Z,17.10
2023-06-11T04:57:55.872Z,17.20
2023-06-11T05:00:23.780Z,17.40
2023-06-11T05:02:51.464Z,17.50
2023-06-11T05:05:18.625Z,17.70
2023-06-11T05:07:45.523Z,17.80
2023-06-11T05:10:12.612Z,18.00
2023-06-11T05:12:39.558Z,18.10
2023-06-11T05:15:07.434Z,18.30
2023-06-11T05:17:35.420Z,18.40
2023-06-11T05:20:02.801Z,18.60
2023-06-11T05:22:30.952Z,18.80
2023-06-11T05:24:57.823Z,19.00
2023-06-11T05:27:29.987Z,19.20
2023-06-11T05:29:58.171Z,19.40
2023-06-11T05:32:25.311Z,19.60
2023-06-11T05:34:52.328Z,19.80
2023-06-11T05:37:22.343Z,20.00
2023-06-11T05:39:49.195Z,20.20
2023-06-11T05:42:17.800Z,20.60
2023-06-11T05:44:45.152Z,21.10
2023-06-11T05:47:13.017Z,21.80
2023-06-11T05:49:39.927Z,22.70
2023-06-11T05:52:07.008Z,23.60
2023-06-11T05:54:33.979Z,24.40
2023-06-11T05:57:01.356Z,25.10
2023-06-11T05:59:29.037Z,25.80
2023-06-11T06:01:56.258Z,26.50
2023-06-11T06:04:23.533Z,27.10
2023-06-11T06:06:50.432Z,27.80
2023-06-11T06:09:17.665Z,28.30
2023-06-11T06:11:44.989Z,28.70
2023-06-11T06:14:11.934Z,29.20
2023-06-11T06:16:39.810Z,29.80
2023-06-11T06:19:10.467Z,30.30
2023-06-11T06:21:37.286Z,30.70
2023-06-11T06:24:04.673Z,31.00
2023-06-11T06:26:31.757Z,31.40
2023-06-11T06:28:59.329Z,31.70
2023-06-11T06:31:26.601Z,32.10
2023-06-11T06:33:54.068Z,32.30
2023-06-11T06:36:23.763Z,32.60
2023-06-11T06:38:52.198Z,32.70
2023-06-11T06:41:20.221Z,32.80
2023-06-11T06:43:47.240Z,33.00
2023-06-11T06:46:17.956Z,33.00
2023-06-11T06:48:45.120Z,33.40
2023-06-11T06:51:12.132Z,33.70
2023-06-11T06:53:42.322Z,34.10
2023-06-11T06:56:10.792Z,34.50
2023-06-11T06:58:38.376Z,34.80
2023-06-11T07:01:05.580Z,35.00
2023-06-11T07:03:34.796Z,35.30
2023-06-11T07:06:02.164Z,35.60
2023-06-11T07:08:29.258Z,35.90
2023-06-11T07:10:56.906Z,36.30
2023-06-11T07:13:39.734Z,36.60
2023-06-11T07:16:07.732Z,36.90
2023-06-11T07:18:36.358Z,37.20
2023-06-11T07:21:03.321Z,37.60
2023-06-11T07:23:31.329Z,37.80
2023-06-11T07:25:58.558Z,37.90
2023-06-11T07:28:29.257Z,38.00
2023-06-11T07:30:58.396Z,38.30
2023-06-11T07:33:25.917Z,38.30
2023-06-11T07:35:54.812Z,38.10
2023-06-11T07:38:23.188Z,38.00
2023-06-11T07:40:50.482Z,37.70
2023-06-11T07:43:17.648Z,37.60
2023-06-11T07:45:45.058Z,37.50
2023-06-11T07:48:12.388Z,37.60
2023-06-11T07:50:39.385Z,37.50
2023-06-11T07:53:06.314Z,37.60
2023-06-11T07:55:34.282Z,37.70
2023-06-11T07:58:01.178Z,38.10
2023-06-11T08:00:27.947Z,38.30
2023-06-11T08:02:54.955Z,38.50
2023-06-11T08:05:23.321Z,39.10
2023-06-11T08:07:50.473Z,39.50
2023-06-11T08:10:17.372Z,39.90
2023-06-11T08:12:44.438Z,40.10
2023-06-11T08:15:11.502Z,40.50
2023-06-11T08:17:39.892Z,40.60
2023-06-11T08:20:09.004Z,40.70
2023-06-11T08:22:36.373Z,41.00
2023-06-11T08:25:03.685Z,41.30
2023-06-11T08:27:30.619Z,41.70
2023-06-11T08:29:57.401Z,42.00
2023-06-11T08:32:25.117Z,42.40
2023-06-11T08:34:52.015Z,42.70
2023-06-11T08:37:18.951Z,43.10
2023-06-11T08:39:45.766Z,43.30
2023-06-11T08:42:13.874Z,43.10
2023-06-11T08:44:40.889Z,42.80
2023-06-11T08:47:08.259Z,42.60
2023-06-11T08:49:38.660Z,42.50
2023-06-11T08:52:06.340Z,42.20
2023-06-11T08:54:33.541Z,42.20
2023-06-11T08:57:00.707Z,42.20
2023-06-11T08:59:27.518Z,42.00
2023-06-11T09:01:54.515Z,41.90
2023-06-11T09:04:24.473Z,41.90
2023-06-11T09:06:59.345Z,42.00
2023-06-11T09:09:26.493Z,42.40
2023-06-11T09:11:53.499Z,42.80
2023-06-11T09:14:21.583Z,43.00
2023-06-11T09:16:49.687Z,43.00
2023-06-11T09:19:18.080Z,42.70
2023-06-11T09:21:52.326Z,42.60
2023-06-11T09:24:21.365Z,42.70
2023-06-11T09:26:56.669Z,42.80
2023-06-11T09:29:27.680Z,42.80
2023-06-11T09:32:23.939Z,42.60
2023-06-11T09:34:57.358Z,42.70
2023-06-11T09:37:24.520Z,42.90
2023-06-11T09:39:51.684Z,42.60
2023-06-11T09:42:28.384Z,42.80
2023-06-11T09:45:02.417Z,43.00
2023-06-11T09:47:32.951Z,43.30
2023-06-11T09:50:00.253Z,43.50
2023-06-11T09:52:28.120Z,43.70
2023-06-11T09:54:56.132Z,43.80
2023-06-11T09:57:23.181Z,44.10
2023-06-11T09:59:50.196Z,44.30
2023-06-11T10:02:17.049Z,44.00
2023-06-11T10:04:44.081Z,44.00
2023-06-11T10:07:12.198Z,44.10
2023-06-11T10:09:41.393Z,44.00
2023-06-11T10:12:08.910Z,43.70
2023-06-11T10:14:38.054Z,43.50
2023-06-11T10:17:09.448Z,43.30
2023-06-11T10:19:40.220Z,43.30
2023-06-11T10:22:07.471Z,43.10
2023-06-11T10:24:34.594Z,43.00
2023-06-11T10:27:13.805Z,43.30
2023-06-11T10:29:42.676Z,43.00
2023-06-11T10:32:20.913Z,42.70
2023-06-11T10:35:02.010Z,43.00
2023-06-11T10:37:33.463Z,43.30
2023-06-11T10:40:00.854Z,43.40
2023-06-11T10:42:34.979Z,43.20
2023-06-11T10:45:06.096Z,43.30
2023-06-11T10:47:42.714Z,43.30
2023-06-11T10:50:12.445Z,43.00
2023-06-11T10:53:07.990Z,42.70
2023-06-11T10:55:36.093Z,42.70
2023-06-11T10:58:03.442Z,42.50
2023-06-11T11:00:34.242Z,42.20
2023-06-11T11:03:04.878Z,42.00
2023-06-11T11:05:32.258Z,42.00
2023-06-11T11:08:02.292Z,41.80
2023-06-11T11:10:29.997Z,41.70
2023-06-11T11:12:56.892Z,41.40
2023-06-11T11:15:23.774Z,41.10
2023-06-11T11:17:51.441Z,40.90
2023-06-11T11:20:20.480Z,40.80
2023-06-11T11:22:55.674Z,41.00
2023-06-11T11:25:31.137Z,41.40
2023-06-11T11:27:58.813Z,41.70
2023-06-11T11:30:29.523Z,41.90
2023-06-11T11:32:58.014Z,42.30
2023-06-11T11:35:26.466Z,42.00
2023-06-11T11:37:55.765Z,41.40
2023-06-11T11:40:23.562Z,41.30
2023-06-11T11:42:58.079Z,41.30
2023-06-11T11:45:32.322Z,41.10
2023-06-11T11:48:04.096Z,40.80
2023-06-11T11:50:32.093Z,40.60
2023-06-11T11:53:06.835Z,40.40
2023-06-11T11:55:35.318Z,40.30
2023-06-11T11:58:07.104Z,40.60
2023-06-11T12:00:36.683Z,40.60
2023-06-11T12:03:11.050Z,39.80
2023-06-11T12:05:39.390Z,38.40
2023-06-11T12:08:07.576Z,37.10
2023-06-11T12:10:34.674Z,37.20
2023-06-11T12:13:02.403Z,37.60
2023-06-11T12:15:29.570Z,38.00
2023-06-11T12:17:56.480Z,38.20
2023-06-11T12:20:23.518Z,37.50
2023-06-11T12:22:51.571Z,37.20
2023-06-11T12:25:18.891Z,37.50
2023-06-11T12:27:45.882Z,37.90
2023-06-11T12:30:13.626Z,37.80
2023-06-11T12:32:41.976Z,37.40
2023-06-11T12:35:09.540Z,36.80
2023-06-11T12:37:37.528Z,36.10
2023-06-11T12:40:06.065Z,35.10
2023-06-11T12:42:34.282Z,34.20
2023-06-11T12:45:01.856Z,33.60
2023-06-11T12:47:28.806Z,33.40
2023-06-11T12:49:55.801Z,33.10
2023-06-11T12:52:22.668Z,32.90
2023-06-11T12:54:49.745Z,32.60
2023-06-11T12:57:16.785Z,32.40
2023-06-11T12:59:43.896Z,32.50
2023-06-11T13:02:11.746Z,32.40
2023-06-11T13:04:38.565Z,32.20
2023-06-11T13:07:05.709Z,31.90
2023-06-11T13:09:32.558Z,31.60
2023-06-11T13:11:59.749Z,31.30
2023-06-11T13:14:26.714Z,31.00
2023-06-11T13:16:55.731Z,30.80
2023-06-11T13:19:23.249Z,30.50
2023-06-11T13:21:50.116Z,30.20
2023-06-11T13:24:17.048Z,29.90
2023-06-11T13:26:44.152Z,29.80
2023-06-11T13:29:11.290Z,29.90
2023-06-11T13:31:40.586Z,30.00
2023-06-11T13:34:09.418Z,30.10
2023-06-11T13:36:37.583Z,30.20
2023-06-11T13:39:05.006Z,30.30
2023-06-11T13:41:31.733Z,30.30
2023-06-11T13:43:58.614Z,30.20
2023-06-11T13:46:25.671Z,30.00
2023-06-11T13:48:52.481Z,29.90
2023-06-11T13:51:20.801Z,29.60
2023-06-11T13:53:47.618Z,29.40
2023-06-11T13:56:15.214Z,29.20
2023-06-11T13:58:42.267Z,29.10
2023-06-11T14:01:09.119Z,29.10
2023-06-11T14:03:35.992Z,29.10
2023-06-11T14:06:03.972Z,29.20
2023-06-11T14:08:31.002Z,29.30
2023-06-11T14:10:57.998Z,29.40
2023-06-11T14:13:24.846Z,29.60
2023-06-11T14:15:52.202Z,29.80
2023-06-11T14:18:19.062Z,29.80
2023-06-11T14:20:46.005Z,29.70
2023-06-11T14:23:12.908Z,29.80
2023-06-11T14:25:39.727Z,29.80
2023-06-11T14:28:06.659Z,29.80
2023-06-11T14:30:33.622Z,29.60
2023-06-11T14:33:01.099Z,29.50
2023-06-11T14:35:27.978Z,29.30
2023-06-11T14:37:58.330Z,29.20
2023-06-11T14:40:26.807Z,29.10
2023-06-11T14:42:53.659Z,29.00
2023-06-11T14:45:22.391Z,29.00
2023-06-11T14:47:50.925Z,29.00
2023-06-11T14:50:17.777Z,29.10
2023-06-11T14:52:44.779Z,29.20
2023-06-11T14:55:11.529Z,29.30
2023-06-11T14:57:38.317Z,29.40
2023-06-11T15:00:05.876Z,29.30
2023-06-11T15:02:35.990Z,29.20
2023-06-11T15:05:04.168Z,29.00
2023-06-11T15:07:35.388Z,28.90
2023-06-11T15:10:05.336Z,28.70
2023-06-11T15:12:32.754Z,28.50
2023-06-11T15:15:02.038Z,28.30
2023-06-11T15:17:34.152Z,28.20
2023-06-11T15:20:01.211Z,28.10
2023-06-11T15:22:28.203Z,28.20
2023-06-11T15:24:55.065Z,28.20
2023-06-11T15:27:21.849Z,28.20
2023-06-11T15:29:48.882Z,28.20
2023-06-11T15:32:18.550Z,28.30
2023-06-11T15:34:45.666Z,28.40
2023-06-11T15:37:12.658Z,28.60
2023-06-11T15:39:39.439Z,28.70
2023-06-11T15:42:06.640Z,28.70
2023-06-11T15:44:33.540Z,28.60
2023-06-11T15:47:00.498Z,28.50
2023-06-11T15:49:27.313Z,28.50
2023-06-11T15:51:54.127Z,28.40
2023-06-11T15:54:20.973Z,28.30
2023-06-11T15:56:48.872Z,28.10
2023-06-11T15:59:16.185Z,28.00
2023-06-11T16:01:43.809Z,27.90
2023-06-11T16:04:14.398Z,27.80
2023-06-11T16:06:41.267Z,27.70
2023-06-11T16:09:09.162Z,27.60
2023-06-11T16:11:36.068Z,27.60
2023-06-11T16:14:02.859Z,27.60
2023-06-11T16:16:29.884Z,27.60
2023-06-11T16:18:56.955Z,27.60
2023-06-11T16:21:23.861Z,27.60
2023-06-11T16:23:50.990Z,27.50
2023-06-11T16:26:17.822Z,27.50
2023-06-11T16:28:44.637Z,27.50
2023-06-11T16:31:11.543Z,27.50
2023-06-11T16:33:51.882Z,27.50
2023-06-11T16:36:22.772Z,27.50
2023-06-11T16:38:49.741Z,27.50
2023-06-11T16:41:16.629Z,27.50
2023-06-11T16:43:43.668Z,27.50
2023-06-11T16:46:10.565Z,27.50
2023-06-11T16:48:37.517Z,27.40
2023-06-11T16:51:04.366Z,27.40
2023-06-11T16:53:31.208Z,27.40
2023-06-11T16:55:58.154Z,27.30
2023-06-11T16:58:25.229Z,27.30
2023-06-11T17:00:52.557Z,27.20
2023-06-11T17:03:19.781Z,27.20
2023-06-11T17:05:46.788Z,27.20
2023-06-11T17:08:14.338Z,27.20
2023-06-11T17:10:41.429Z,27.10
2023-06-11T17:13:08.306Z,27.10
2023-06-11T17:15:35.303Z,27.00
2023-06-11T17:18:02.227Z,27.00
2023-06-11T17:20:29.124Z,26.90
2023-06-11T17:22:55.986Z,26.90
2023-06-11T17:25:24.527Z,26.80
2023-06-11T17:27:51.792Z,26.80
2023-06-11T17:30:18.876Z,26.80
2023-06-11T17:32:45.768Z,26.70
2023-06-11T17:35:13.023Z,26.70
2023-06-11T17:37:40.046Z,26.70
2023-06-11T17:40:08.327Z,26.60
2023-06-11T17:42:35.248Z,26.60
2023-06-11T17:45:02.066Z,26.60
2023-06-11T17:47:28.883Z,26.50
2023-06-11T17:49:55.912Z,26.50
2023-06-11T17:52:22.689Z,26.40
2023-06-11T17:54:50.278Z,26.40
2023-06-11T17:57:17.163Z,26.30
2023-06-11T17:59:43.930Z,26.30
2023-06-11T18:02:10.828Z,26.20
2023-06-11T18:04:37.592Z,26.20
2023-06-11T18:07:05.247Z,26.10
2023-06-11T18:09:32.064Z,26.10
2023-06-11T18:11:58.878Z,26.00
2023-06-11T18:14:25.675Z,26.00
2023-06-11T18:16:54.460Z,25.90
2023-06-11T18:19:21.476Z,25.90
2023-06-11T18:21:48.362Z,25.80
2023-06-11T18:24:15.457Z,25.80
2023-06-11T18:26:42.396Z,25.70
2023-06-11T18:29:09.736Z,25.60
2023-06-11T18:31:36.544Z,25.60
2023-06-11T18:34:03.592Z,25.50
2023-06-11T18:36:30.551Z,25.50
2023-06-11T18:38:57.671Z,25.40
2023-06-11T18:41:24.541Z,25.40
2023-06-11T18:43:51.592Z,25.30
2023-06-11T18:46:18.653Z,25.20
2023-06-11T18:48:45.715Z,25.00
2023-06-11T18:51:13.968Z,24.80
2023-06-11T18:53:40.804Z,24.50
2023-06-11T18:56:07.578Z,24.30
2023-06-11T18:58:34.509Z,24.20
2023-06-11T19:01:01.519Z,24.20
2023-06-11T19:03:28.461Z,24.10
2023-06-11T19:05:55.468Z,24.00
2023-06-11T19:08:22.269Z,23.90
2023-06-11T19:10:49.731Z,23.80
2023-06-11T19:13:19.980Z,23.70
2023-06-11T19:15:47.263Z,23.70
2023-06-11T19:18:15.140Z,23.60
2023-06-11T19:20:42.215Z,23.50
2023-06-11T19:23:11.028Z,23.40
2023-06-11T19:25:37.930Z,23.30
2023-06-11T19:28:04.984Z,23.20
2023-06-11T19:30:32.080Z,23.10
2023-06-11T19:32:59.024Z,23.00
2023-06-11T19:35:25.934Z,22.90
2023-06-11T19:37:52.814Z,22.90
2023-06-11T19:40:19.739Z,22.80
2023-06-11T19:42:46.571Z,22.70
2023-06-11T19:45:17.203Z,22.60
2023-06-11T19:47:44.009Z,22.60
2023-06-11T19:50:11.939Z,22.50
2023-06-11T19:52:39.100Z,22.40
2023-06-11T19:55:06.352Z,22.40
2023-06-11T19:57:33.249Z,22.30
2023-06-11T20:00:00.641Z,22.20
2023-06-11T20:02:27.942Z,22.10
2023-06-11T20:04:55.038Z,22.10
2023-06-11T20:07:21.950Z,22.00
2023-06-11T20:09:48.890Z,22.00
2023-06-11T20:12:15.793Z,21.90
2023-06-11T20:14:42.548Z,21.90
2023-06-11T20:17:09.371Z,21.80
2023-06-11T20:19:37.060Z,21.80
2023-06-11T20:22:07.313Z,21.70
2023-06-11T20:24:34.302Z,21.70
2023-06-11T20:27:01.306Z,21.60
2023-06-11T20:29:28.056Z,21.60
2023-06-11T20:31:55.117Z,21.50
2023-06-11T20:34:21.974Z,21.50
2023-06-11T20:36:48.889Z,21.40
2023-06-11T20:39:15.695Z,21.40
2023-06-11T20:41:42.716Z,21.30
2023-06-11T20:44:09.764Z,21.30
2023-06-11T20:46:36.637Z,21.30
2023-06-11T20:49:03.703Z,21.20
2023-06-11T20:51:30.510Z,21.20
2023-06-11T20:53:57.386Z,21.10
2023-06-11T20:56:24.199Z,21.10
2023-06-11T20:58:51.202Z,21.00
2023-06-11T21:01:18.111Z,21.00
2023-06-11T21:03:45.195Z,20.90
2023-06-11T21:06:12.161Z,20.90
2023-06-11T21:08:38.992Z,20.90
2023-06-11T21:11:06.893Z,20.90
2023-06-11T21:13:33.882Z,20.80
2023-06-11T21:16:00.723Z,20.70
2023-06-11T21:18:27.646Z,20.70
2023-06-11T21:20:54.424Z,20.60
2023-06-11T21:23:22.243Z,20.50
2023-06-11T21:25:49.850Z,20.40
2023-06-11T21:28:16.701Z,20.30
2023-06-11T21:30:44.105Z,20.30
2023-06-11T21:33:11.120Z,20.20
2023-06-11T21:35:37.910Z,20.10
2023-06-11T21:38:04.656Z,20.00
2023-06-11T21:50:14.923Z,19.60
2023-06-11T21:52:42.315Z,19.50
2023-06-11T21:55:09.435Z,19.40
2023-06-11T21:57:36.319Z,19.40
2023-06-11T22:00:11.737Z,19.20
2023-06-11T22:02:42.933Z,19.10
2023-06-11T22:05:10.798Z,19.10
2023-06-11T22:07:38.315Z,19.00
2023-06-11T22:10:05.641Z,18.90
2023-06-11T22:12:42.928Z,18.90
2023-06-11T22:15:11.666Z,18.80
2023-06-11T22:17:40.319Z,18.80
2023-06-11T22:20:09.182Z,18.80
2023-06-11T22:22:38.361Z,18.70
2023-06-11T22:25:05.930Z,18.70
2023-06-11T22:27:33.459Z,18.70
2023-06-11T22:30:00.477Z,18.70
2023-06-11T22:32:27.718Z,18.60
2023-06-11T22:34:54.783Z,18.50
2023-06-11T22:37:21.762Z,18.40
2023-06-11T22:39:48.641Z,18.40
2023-06-11T22:42:15.674Z,18.30
2023-06-11T22:44:42.525Z,18.30
2023-06-11T22:47:11.068Z,18.20
2023-06-11T22:49:39.227Z,18.20
2023-06-11T22:52:09.022Z,18.10
2023-06-11T22:54:39.660Z,18.10
2023-06-11T22:57:09.629Z,18.10
2023-06-11T22:59:36.409Z,18.00
2023-06-11T23:02:03.551Z,18.00
2023-06-11T23:04:34.018Z,17.90
2023-06-11T23:07:03.107Z,17.80
2023-06-11T23:09:30.595Z,17.70
2023-06-11T23:11:57.545Z,17.70
2023-06-11T23:14:24.721Z,17.60
2023-06-11T23:16:51.658Z,17.50
2023-06-11T23:19:23.700Z,17.40
2023-06-11T23:21:51.768Z,17.40
2023-06-11T23:24:19.017Z,17.30
2023-06-11T23:26:46.691Z,17.30
2023-06-11T23:29:13.634Z,17.20
2023-06-11T23:31:40.759Z,17.20
2023-06-11T23:34:10.769Z,17.10
2023-06-11T23:36:41.239Z,17.10
2023-06-11T23:39:10.514Z,17.00
2023-06-11T23:41:37.615Z,17.00
2023-06-11T23:44:05.048Z,17.00
2023-06-11T23:46:33.917Z,16.90
2023-06-11T23:49:01.303Z,16.80
2023-06-11T23:51:29.252Z,16.80
2023-06-11T23:53:56.367Z,16.70
2023-06-11T23:56:23.325Z,16.70
2023-06-11T23:58:50.480Z,16.70
